createdAt,value
2023-03-05T00:02:05.883Z,-3.06
2023-03-05T00:07:12.336Z,-3.10
2023-03-05T00:12:15.292Z,-3.12
2023-03-05T00:17:18.415Z,-3.15
2023-03-05T00:22:21.691Z,-3.17
2023-03-05T00:27:24.599Z,-3.17
2023-03-05T00:32:27.446Z,-3.15
2023-03-05T00:37:30.234Z,-3.16
2023-03-05T00:42:38.593Z,-3.14
2023-03-05T00:47:41.337Z,-3.17
2023-03-05T00:52:44.115Z,-3.19
2023-03-05T00:57:46.797Z,-3.20
2023-03-05T01:02:49.638Z,-3.21
2023-03-05T01:07:53.967Z,-3.22
2023-03-05T01:12:57.849Z,-3.24
2023-03-05T01:18:00.593Z,-3.27
2023-03-05T01:23:03.498Z,-3.31
2023-03-05T01:28:06.235Z,-3.36
2023-03-05T01:33:09.598Z,-3.43
2023-03-05T01:38:12.400Z,-3.45
2023-03-05T01:43:29.319Z,-3.48
2023-03-05T01:48:32.174Z,-3.52
2023-03-05T01:53:35.039Z,-3.56
2023-03-05T01:58:39.900Z,-3.57
2023-03-05T02:03:43.018Z,-3.59
2023-03-05T02:08:45.757Z,-3.58
2023-03-05T02:13:48.522Z,-3.58
2023-03-05T02:18:51.326Z,-3.59
2023-03-05T02:23:54.408Z,-3.59
2023-03-05T02:29:01.093Z,-3.59
2023-03-05T02:34:03.793Z,-3.58
2023-03-05T02:39:07.264Z,-3.58
2023-03-05T02:44:10.037Z,-3.61
2023-03-05T02:49:12.797Z,-3.64
2023-03-05T02:54:15.625Z,-3.65
2023-03-05T02:59:18.375Z,-3.67
2023-03-05T03:04:21.173Z,-3.71
2023-03-05T03:09:23.860Z,-3.73
2023-03-05T03:14:26.733Z,-3.74
2023-03-05T03:19:29.533Z,-3.73
2023-03-05T03:24:33.760Z,-2.75
2023-03-05T03:29:37.210Z,0.37
2023-03-05T03:34:40.132Z,1.15
2023-03-05T03:39:42.893Z,-0.50
2023-03-05T03:44:45.640Z,-1.48
2023-03-05T03:49:48.340Z,-1.99
2023-03-05T03:54:53.244Z,-2.28
2023-03-05T03:59:56.058Z,-2.46
2023-03-05T04:04:58.846Z,-2.60
2023-03-05T04:10:01.647Z,-2.73
2023-03-05T04:15:08.049Z,-2.85
2023-03-05T04:20:11.739Z,-2.49
2023-03-05T04:25:14.968Z,0.08
2023-03-05T04:30:18.060Z,-0.63
2023-03-05T04:35:20.825Z,-1.79
2023-03-05T04:40:23.572Z,-2.44
2023-03-05T04:45:26.390Z,-2.86
2023-03-05T04:50:29.103Z,-3.16
2023-03-05T04:55:31.873Z,-3.38
2023-03-05T05:00:34.670Z,-2.70
2023-03-05T05:05:37.987Z,-0.20
2023-03-05T05:10:41.571Z,1.05
2023-03-05T05:15:44.292Z,-0.54
2023-03-05T05:20:47.924Z,-1.96
2023-03-05T05:26:01.619Z,-2.77
2023-03-05T05:31:08.643Z,-3.08
2023-03-05T05:36:15.373Z,-1.00
2023-03-05T05:41:19.638Z,0.84
2023-03-05T05:46:23.029Z,0.78
2023-03-05T05:51:26.252Z,-0.41
2023-03-05T05:56:29.050Z,-0.60
2023-03-05T06:01:34.720Z,-1.04
2023-03-05T06:06:37.945Z,-1.53
2023-03-05T06:11:40.726Z,-1.84
2023-03-05T06:16:43.592Z,0.18
2023-03-05T06:21:46.382Z,2.39
2023-03-05T06:26:49.388Z,2.52
2023-03-05T06:31:52.348Z,2.70
2023-03-05T06:36:55.667Z,3.54
2023-03-05T06:41:58.768Z,4.60
2023-03-05T06:47:01.469Z,5.57
2023-03-05T06:52:06.013Z,6.31
2023-03-05T06:57:10.590Z,6.93
2023-03-05T07:02:14.384Z,7.11
2023-03-05T07:07:17.385Z,7.63
2023-03-05T07:12:20.121Z,7.80
2023-03-05T07:17:22.889Z,7.82
2023-03-05T07:22:25.606Z,7.97
2023-03-05T07:27:28.493Z,8.20
2023-03-05T07:32:31.528Z,9.21
2023-03-05T07:37:34.709Z,10.37
2023-03-05T07:42:37.427Z,11.99
2023-03-05T07:47:40.491Z,12.47
2023-03-05T07:52:43.221Z,12.76
2023-03-05T07:57:45.978Z,13.61
2023-03-05T08:02:50.217Z,14.15
2023-03-05T08:07:53.132Z,14.95
2023-03-05T08:12:55.958Z,15.22
2023-03-05T08:17:59.855Z,14.07
2023-03-05T08:23:03.495Z,11.74
2023-03-05T08:28:06.243Z,10.11
2023-03-05T08:33:09.112Z,9.44
2023-03-05T08:38:11.916Z,9.96
2023-03-05T08:43:15.458Z,10.57
2023-03-05T08:48:18.141Z,10.81
2023-03-05T08:53:20.854Z,10.72
2023-03-05T08:58:24.637Z,11.15
2023-03-05T09:03:27.892Z,11.05
2023-03-05T09:08:30.632Z,10.93
2023-03-05T09:13:34.010Z,10.64
2023-03-05T09:18:36.980Z,9.57
2023-03-05T09:23:40.964Z,8.33
2023-03-05T09:28:43.714Z,7.96
2023-03-05T09:33:48.046Z,8.22
2023-03-05T09:38:51.393Z,8.72
2023-03-05T09:44:02.466Z,8.93
2023-03-05T09:49:13.280Z,9.11
2023-03-05T09:54:41.738Z,9.40
2023-03-05T09:59:59.515Z,9.75
2023-03-05T10:05:43.585Z,9.52
2023-03-05T10:10:51.202Z,9.26
2023-03-05T10:16:06.224Z,9.39
2023-03-05T10:21:32.209Z,10.11
2023-03-05T10:27:13.430Z,10.03
2023-03-05T10:32:36.276Z,11.67
2023-03-05T10:37:41.997Z,13.57
2023-03-05T10:43:15.710Z,13.58
2023-03-05T10:48:59.263Z,12.23
2023-03-05T10:54:04.632Z,9.99
2023-03-05T10:59:07.342Z,8.06
2023-03-05T11:04:28.687Z,7.43
2023-03-05T11:09:35.556Z,9.63
2023-03-05T11:14:41.739Z,11.76
2023-03-05T11:19:44.572Z,13.77
2023-03-05T11:25:05.689Z,14.68
2023-03-05T11:30:29.166Z,15.07
2023-03-05T11:35:35.138Z,16.81
2023-03-05T11:40:37.875Z,16.26
2023-03-05T11:45:42.275Z,13.52
2023-03-05T11:50:48.966Z,9.87
2023-03-05T11:56:04.166Z,8.60
2023-03-05T12:01:20.992Z,9.20
2023-03-05T12:06:37.732Z,7.99
2023-03-05T12:11:41.239Z,5.80
2023-03-05T12:16:53.475Z,4.15
2023-03-05T12:21:57.500Z,3.46
2023-03-05T12:27:03.063Z,3.08
2023-03-05T12:32:26.104Z,3.23
2023-03-05T12:37:28.940Z,6.98
2023-03-05T12:42:31.661Z,11.25
2023-03-05T12:47:34.383Z,13.75
2023-03-05T12:52:42.277Z,12.06
2023-03-05T12:57:47.285Z,9.58
2023-03-05T13:02:56.429Z,8.77
2023-03-05T13:08:18.174Z,9.38
2023-03-05T13:13:21.718Z,8.41
2023-03-05T13:18:27.401Z,9.43
2023-03-05T13:23:32.653Z,11.86
2023-03-05T13:28:37.516Z,10.65
2023-03-05T13:33:40.618Z,9.04
2023-03-05T13:38:48.636Z,7.99
2023-03-05T13:43:55.212Z,7.95
2023-03-05T13:49:18.057Z,9.22
2023-03-05T13:54:23.412Z,10.12
2023-03-05T13:59:29.706Z,12.71
2023-03-05T14:04:38.042Z,14.17
2023-03-05T14:09:40.708Z,12.76
2023-03-05T14:14:44.157Z,12.59
2023-03-05T14:19:46.951Z,14.85
2023-03-05T14:24:53.575Z,17.05
2023-03-05T14:29:56.331Z,18.43
2023-03-05T14:35:01.943Z,18.62
2023-03-05T14:40:32.109Z,18.84
2023-03-05T14:45:38.453Z,19.49
2023-03-05T14:50:46.012Z,19.34
2023-03-05T14:55:51.461Z,16.19
2023-03-05T15:00:55.601Z,12.71
2023-03-05T15:05:59.569Z,9.94
2023-03-05T15:11:04.069Z,8.23
2023-03-05T15:16:07.986Z,9.76
2023-03-05T15:21:11.131Z,12.11
2023-03-05T15:26:15.467Z,13.40
2023-03-05T15:31:18.689Z,14.49
2023-03-05T15:36:21.572Z,15.20
2023-03-05T15:41:24.963Z,15.38
2023-03-05T15:46:27.840Z,14.61
2023-03-05T15:51:30.615Z,13.08
2023-03-05T15:56:33.369Z,10.16
2023-03-05T16:01:39.288Z,7.10
2023-03-05T16:06:43.723Z,4.85
2023-03-05T16:11:49.561Z,3.33
2023-03-05T16:16:55.543Z,2.45
2023-03-05T16:21:58.223Z,1.66
2023-03-05T16:27:01.039Z,0.94
2023-03-05T16:32:04.943Z,0.41
2023-03-05T16:37:07.789Z,0.02
2023-03-05T16:42:10.784Z,-0.29
2023-03-05T16:47:13.659Z,-0.53
2023-03-05T16:52:19.720Z,-0.68
2023-03-05T16:57:25.788Z,-0.81
2023-03-05T17:02:28.853Z,-0.88
2023-03-05T17:07:31.646Z,-0.97
2023-03-05T17:12:34.332Z,-1.06
2023-03-05T17:17:38.921Z,-1.15
2023-03-05T17:22:42.332Z,-1.25
2023-03-05T17:27:45.112Z,-1.34
2023-03-05T17:32:48.116Z,-1.42
2023-03-05T17:37:53.531Z,-1.50
2023-03-05T17:42:56.273Z,-0.54
2023-03-05T17:47:59.022Z,1.93
2023-03-05T17:53:01.880Z,1.38
2023-03-05T17:58:04.678Z,0.03
2023-03-05T18:03:07.613Z,-0.67
2023-03-05T18:08:10.389Z,0.83
2023-03-05T18:13:13.187Z,1.83
2023-03-05T18:18:17.327Z,0.36
2023-03-05T18:23:20.050Z,-0.63
2023-03-05T18:28:22.882Z,-1.20
2023-03-05T18:33:25.815Z,-0.12
2023-03-05T18:38:29.901Z,2.22
2023-03-05T18:43:32.656Z,2.81
2023-03-05T18:48:35.387Z,0.97
2023-03-05T18:53:38.155Z,-0.38
2023-03-05T18:58:40.972Z,-1.13
2023-03-05T19:03:45.198Z,-0.13
2023-03-05T19:08:50.776Z,2.08
2023-03-05T19:13:53.456Z,3.07
2023-03-05T19:19:20.131Z,1.57
2023-03-05T19:24:25.462Z,-0.21
2023-03-05T19:29:33.271Z,-0.86
2023-03-05T19:34:36.761Z,1.18
2023-03-05T19:39:39.676Z,2.27
2023-03-05T19:44:42.353Z,0.74
2023-03-05T19:49:45.079Z,-0.60
2023-03-05T19:54:47.796Z,0.40
2023-03-05T19:59:53.701Z,2.11
2023-03-05T20:04:57.538Z,2.72
2023-03-05T20:10:00.972Z,0.98
2023-03-05T20:15:03.943Z,-0.53
2023-03-05T20:20:07.549Z,-1.11
2023-03-05T20:25:12.080Z,0.64
2023-03-05T20:30:17.558Z,2.01
2023-03-05T20:35:20.899Z,2.13
2023-03-05T20:40:23.687Z,0.32
2023-03-05T20:45:26.388Z,-0.96
2023-03-05T20:50:29.052Z,-0.52
2023-03-05T20:55:32.724Z,1.46
2023-03-05T21:00:37.282Z,2.59
2023-03-05T21:05:40.080Z,3.36
2023-03-05T21:10:42.956Z,2.37
2023-03-05T21:15:45.734Z,0.18
2023-03-05T21:20:48.528Z,-1.14
2023-03-05T21:25:51.306Z,-1.16
2023-03-05T21:30:55.840Z,0.94
2023-03-05T21:35:59.118Z,2.27
2023-03-05T21:41:03.148Z,3.02
2023-03-05T21:46:06.083Z,1.89
2023-03-05T21:51:09.151Z,-0.18
2023-03-05T21:56:23.547Z,-1.24
2023-03-05T22:01:26.595Z,0.40
2023-03-05T22:06:29.389Z,2.14
2023-03-05T22:11:32.138Z,2.93
2023-03-05T22:16:34.970Z,1.30
2023-03-05T22:21:37.948Z,-0.50
2023-03-05T22:26:41.749Z,-0.75
2023-03-05T22:31:44.724Z,1.34
2023-03-05T22:36:47.476Z,2.74
2023-03-05T22:41:50.573Z,2.58
2023-03-05T22:46:53.384Z,0.50
2023-03-05T22:51:56.062Z,-0.84
2023-03-05T22:56:59.277Z,-0.51
2023-03-05T23:02:01.969Z,1.47
2023-03-05T23:07:04.922Z,0.87
2023-03-05T23:12:08.257Z,-0.74
2023-03-05T23:17:11.015Z,-1.22
2023-03-05T23:22:14.223Z,0.89
2023-03-05T23:27:19.102Z,1.76
2023-03-05T23:32:21.836Z,-0.03
2023-03-05T23:37:24.611Z,-0.49
2023-03-05T23:42:27.685Z,1.38
2023-03-05T23:47:30.490Z,1.63
2023-03-05T23:52:33.904Z,-0.31
2023-03-05T23:57:37.036Z,-0.94
